Time;durP1;ratioP1;P1;durP2;ratioP2;P2;SDS_P1;SDS_P2;PMS_P1;PMS_P2;Temp;Humidity;BMP_temperature;BMP_pressure;BME280_temperature;BME280_humidity;BME280_pressure;Samples;Min_cycle;Max_cycle;Signal;HPM_P1;HPM_P2
2022/09/19 00:01:30;;;;;;;0.90;0.90;;;;;;;5.04;100.00;95864.66;6128183;23;20408;-77
2022/09/19 00:04:05;;;;;;;1.83;1.00;;;;;;;4.99;100.00;95852.47;6103725;23;20412;-77
2022/09/19 00:06:37;;;;;;;1.00;0.90;;;;;;;5.06;100.00;95870.38;6154189;23;20778;-77
2022/09/19 00:09:06;;;;;;;0.80;0.80;;;;;;;4.89;100.00;95839.63;6127857;23;20399;-77
2022/09/19 00:11:33;;;;;;;1.07;0.93;;;;;;;4.94;100.00;95849.22;6103522;23;20800;-77
2022/09/19 00:14:01;;;;;;;1.13;1.00;;;;;;;5.10;100.00;95866.09;6128077;23;20384;-76
2022/09/19 00:16:33;;;;;;;2.17;0.90;;;;;;;4.68;100.00;95802.75;6153871;23;20411;-76
2022/09/19 00:19:04;;;;;;;1.10;1.00;;;;;;;4.75;100.00;95823.25;6103678;23;20408;-77
2022/09/19 00:21:33;;;;;;;1.20;1.10;;;;;;;5.08;100.00;95870.88;6153916;23;20420;-76
2022/09/19 00:26:47;;;;;;;1.30;1.20;;;;;;;4.88;100.00;95827.63;6127619;23;20433;-77
2022/09/19 00:29:15;;;;;;;1.10;1.00;;;;;;;4.89;100.00;95828.41;6153814;23;20396;-76
2022/09/19 00:31:44;;;;;;;2.43;1.00;;;;;;;4.81;100.00;95814.19;6127799;23;20402;-78
2022/09/19 00:34:14;;;;;;;1.20;1.10;;;;;;;4.98;100.00;95835.22;6127531;23;20889;-76
2022/09/19 00:36:42;;;;;;;1.00;0.90;;;;;;;4.90;100.00;95829.94;6127421;23;20518;-76
2022/09/19 00:39:12;;;;;;;1.20;1.10;;;;;;;5.02;100.00;95846.63;6103273;23;20418;-78
2022/09/19 00:41:39;;;;;;;1.00;1.00;;;;;;;5.04;100.00;95836.63;6127210;23;20474;-77
2022/09/19 00:44:26;;;;;;;1.30;1.20;;;;;;;5.02;100.00;95858.97;6153605;23;20764;-77
2022/09/19 00:47:05;;;;;;;1.97;1.13;;;;;;;5.04;100.00;95848.94;6088912;23;20474;-77
2022/09/19 00:49:37;;;;;;;0.83;0.83;;;;;;;5.00;100.00;95840.94;6103224;23;20435;-76
2022/09/19 00:52:13;;;;;;;1.23;1.13;;;;;;;4.96;100.00;95842.63;6127442;23;20392;-76
2022/09/19 00:54:44;;;;;;;1.87;1.00;;;;;;;4.87;100.00;95833.16;6153653;23;20838;-77
2022/09/19 00:57:15;;;;;;;2.13;1.00;;;;;;;4.92;100.00;95836.41;6127388;23;20434;-76
2022/09/19 00:59:51;;;;;;;0.90;0.90;;;;;;;4.91;100.00;95831.47;6127731;23;20415;-77
2022/09/19 01:02:21;;;;;;;2.13;1.27;;;;;;;4.97;100.00;95862.50;6153520;23;20745;-76
2022/09/19 01:04:47;;;;;;;1.50;1.30;;;;;;;4.87;100.00;95847.03;6127147;23;20878;-77
2022/09/19 01:07:45;;;;;;;1.10;0.90;;;;;;;5.00;100.00;95855.88;6102913;23;20510;-76
2022/09/19 01:10:25;;;;;;;5.37;1.10;;;;;;;5.02;100.00;95851.88;6103057;23;20420;-77
2022/09/19 01:12:59;;;;;;;3.53;1.03;;;;;;;5.05;100.00;95853.88;6127068;23;20498;-77
2022/09/19 01:15:41;;;;;;;0.80;0.80;;;;;;;5.03;100.00;95856.03;6103178;23;20482;-76
2022/09/19 01:18:09;;;;;;;1.80;0.70;;;;;;;4.86;100.00;95840.25;6105648;23;20436;-77
2022/09/19 01:20:38;;;;;;;1.30;1.20;;;;;;;4.97;100.00;95856.47;6156852;23;20535;-76
2022/09/19 01:23:49;;;;;;;1.03;1.00;;;;;;;4.79;100.00;95831.25;6130733;23;20402;-76
2022/09/19 01:26:37;;;;;;;2.30;1.03;;;;;;;5.05;100.00;95861.75;6042241;23;20454;-77
2022/09/19 01:29:30;;;;;;;0.93;0.93;;;;;;;5.03;100.00;95861.28;6020234;23;20848;-76
2022/09/19 01:31:59;;;;;;;1.50;1.40;;;;;;;5.04;100.00;95854.19;6095508;23;20431;-77
2022/09/19 01:34:37;;;;;;;8.83;1.40;;;;;;;4.97;100.00;95843.38;6130676;23;20400;-77
2022/09/19 01:37:19;;;;;;;1.73;1.10;;;;;;;5.11;100.00;95849.31;6131158;23;20510;-76
2022/09/19 01:39:50;;;;;;;3.07;1.50;;;;;;;5.02;100.00;95827.53;6106078;23;20431;-77
2022/09/19 01:42:20;;;;;;;2.60;1.57;;;;;;;5.03;100.00;95839.53;6102785;23;20857;-77
2022/09/19 01:44:47;;;;;;;3.53;1.00;;;;;;;4.78;100.00;95795.69;6102733;23;20494;-78
2022/09/19 01:47:25;;;;;;;1.20;1.00;;;;;;;4.79;100.00;95805.09;6126933;23;20906;-77
2022/09/19 01:50:06;;;;;;;0.97;0.87;;;;;;;4.92;100.00;95818.06;6127089;23;20511;-77
2022/09/19 01:53:01;;;;;;;2.30;1.17;;;;;;;5.17;100.00;95863.03;6153732;23;20361;-77
2022/09/19 01:56:07;;;;;;;2.17;1.10;;;;;;;5.07;100.00;95844.94;6109678;23;20403;-77
2022/09/19 01:58:50;;;;;;;0.90;0.83;;;;;;;5.05;100.00;95832.94;6129083;23;20399;-77
2022/09/19 02:01:58;;;;;;;1.43;1.33;;;;;;;5.26;100.00;95864.63;6128984;23;20437;-78
2022/09/19 02:04:41;;;;;;;1.90;1.43;;;;;;;5.07;100.00;95819.53;6155394;23;20372;-76
2022/09/19 02:07:23;;;;;;;2.23;1.10;;;;;;;4.96;100.00;95805.94;6128843;23;20431;-76
2022/09/19 02:09:52;;;;;;;2.83;1.63;;;;;;;5.22;100.00;95863.69;6129090;23;20490;-77
2022/09/19 02:12:25;;;;;;;1.17;1.03;;;;;;;4.93;100.00;95803.91;6129016;23;20455;-76
2022/09/19 02:14:55;;;;;;;1.20;1.10;;;;;;;5.01;100.00;95820.75;6104801;23;20474;-78
2022/09/19 02:17:35;;;;;;;0.97;0.97;;;;;;;5.01;100.00;95828.59;6106101;23;20959;-77
2022/09/19 02:20:13;;;;;;;2.90;1.50;;;;;;;5.09;100.00;95838.34;6128898;23;20403;-76
2022/09/19 02:22:51;;;;;;;1.40;1.10;;;;;;;5.27;100.00;95860.91;6128938;23;20431;-77
2022/09/19 02:25:23;;;;;;;1.60;1.50;;;;;;;5.27;100.00;95860.91;6128901;23;20896;-77
2022/09/19 02:27:58;;;;;;;1.40;1.30;;;;;;;5.30;100.00;95860.31;6128803;23;20427;-76
2022/09/19 02:30:26;;;;;;;1.50;1.40;;;;;;;5.23;100.00;95865.22;6104936;23;20395;-76
2022/09/19 02:32:53;;;;;;;1.40;1.30;;;;;;;4.83;100.00;95791.09;6128765;23;20790;-76
2022/09/19 02:35:38;;;;;;;1.60;1.50;;;;;;;5.27;100.00;95858.28;6104533;23;20458;-76
2022/09/19 02:38:14;;;;;;;1.30;1.20;;;;;;;5.27;100.00;95860.16;6128725;23;20904;-76
2022/09/19 02:40:44;;;;;;;1.30;1.20;;;;;;;5.29;100.00;95869.25;6128574;23;20427;-76
2022/09/19 02:43:23;;;;;;;4.07;1.60;;;;;;;5.01;100.00;95810.25;6104553;23;20413;-75
2022/09/19 02:45:54;;;;;;;1.50;1.40;;;;;;;5.11;100.00;95843.28;6104504;23;20403;-76
2022/09/19 02:48:45;;;;;;;1.90;1.60;;;;;;;5.32;100.00;95863.38;6154939;23;20428;-76
2022/09/19 02:51:36;;;;;;;1.30;1.20;;;;;;;5.25;100.00;95854.44;6128733;23;20854;-77
2022/09/19 02:54:12;;;;;;;1.63;1.30;;;;;;;5.03;100.00;95829.06;6128546;23;20403;-77
2022/09/19 02:56:41;;;;;;;3.30;1.70;;;;;;;5.04;100.00;95820.91;6104294;23;20424;-76
2022/09/19 02:59:15;;;;;;;2.30;1.97;;;;;;;5.10;100.00;95834.66;6104711;23;20408;-77
2022/09/19 03:01:53;;;;;;;1.67;1.57;;;;;;;5.31;100.00;95859.22;6128446;23;20439;-77
2022/09/19 03:04:29;;;;;;;2.70;1.47;;;;;;;5.32;100.00;95867.84;6128206;23;20459;-76
2022/09/19 03:07:13;;;;;;;1.40;1.30;;;;;;;5.36;100.00;95868.81;6128425;23;20419;-78
2022/09/19 03:10:04;;;;;;;2.47;1.70;;;;;;;5.07;100.00;95843.09;6128791;23;20502;-76
2022/09/19 03:12:52;;;;;;;1.60;1.50;;;;;;;5.36;100.00;95881.94;6128439;23;20711;-76
2022/09/19 03:15:24;;;;;;;1.67;1.57;;;;;;;5.12;100.00;95842.22;6104235;23;20396;-76
2022/09/19 03:17:53;;;;;;;2.07;1.70;;;;;;;5.27;100.00;95857.53;6128025;23;20459;-76
2022/09/19 03:20:24;;;;;;;2.07;1.63;;;;;;;5.30;100.00;95859.53;6128345;23;20519;-77
2022/09/19 03:22:53;;;;;;;1.93;1.20;;;;;;;5.33;100.00;95864.94;6127997;23;20435;-77
2022/09/19 03:25:21;;;;;;;1.93;1.83;;;;;;;5.10;100.00;95829.41;6128752;23;20467;-77
2022/09/19 03:27:49;;;;;;;1.73;1.63;;;;;;;5.14;100.00;95835.59;6128072;23;20918;-77
2022/09/19 03:30:17;;;;;;;2.63;2.13;;;;;;;5.41;100.00;95878.38;6128181;23;20616;-76
2022/09/19 03:32:46;;;;;;;3.30;2.10;;;;;;;5.47;100.00;95880.56;6128210;23;20792;-76
2022/09/19 03:35:14;;;;;;;2.00;1.90;;;;;;;5.25;100.00;95847.34;6128413;23;20384;-76
2022/09/19 03:37:43;;;;;;;1.80;1.70;;;;;;;5.31;100.00;95861.06;6104467;23;20475;-76
2022/09/19 03:40:11;;;;;;;1.57;1.47;;;;;;;5.46;100.00;95880.84;6128059;23;20408;-77
2022/09/19 03:42:38;;;;;;;1.73;1.63;;;;;;;5.54;100.00;95891.38;6128045;23;20523;-77
2022/09/19 03:45:05;;;;;;;3.40;1.90;;;;;;;5.27;100.00;95847.81;6103862;23;20391;-76
2022/09/19 03:47:34;;;;;;;1.80;1.70;;;;;;;5.50;100.00;95874.72;6127881;23;20424;-76
2022/09/19 03:50:00;;;;;;;2.23;2.03;;;;;;;5.37;100.00;95875.59;6154421;23;20471;-76
2022/09/19 03:52:33;;;;;;;1.70;1.60;;;;;;;5.58;100.00;95894.94;6104890;23;20774;-77
2022/09/19 03:55:02;;;;;;;2.03;1.80;;;;;;;5.49;100.00;95880.28;6104149;23;20470;-77
2022/09/19 03:57:35;;;;;;;1.90;1.80;;;;;;;5.61;100.00;95904.84;6127865;23;20803;-76
2022/09/19 04:00:02;;;;;;;2.13;2.03;;;;;;;5.57;100.00;95903.09;6103698;23;20794;-76
2022/09/19 04:02:32;;;;;;;1.60;1.50;;;;;;;5.31;100.00;95867.09;6128740;23;20427;-77
2022/09/19 04:05:02;;;;;;;2.03;1.73;;;;;;;5.41;100.00;95886.25;6127748;23;20404;-76
2022/09/19 04:07:29;;;;;;;2.13;2.03;;;;;;;5.66;100.00;95935.38;6103803;23;20423;-76
2022/09/19 04:09:56;;;;;;;2.63;2.07;;;;;;;5.64;100.00;95927.03;6103404;23;20419;-77
2022/09/19 04:12:23;;;;;;;4.20;2.50;;;;;;;5.75;100.00;95938.03;6127773;23;20870;-77
2022/09/19 04:14:50;;;;;;;2.07;1.90;;;;;;;5.73;100.00;95935.69;6128214;23;20404;-77
2022/09/19 04:17:17;;;;;;;1.80;1.70;;;;;;;5.68;100.00;95922.72;6126886;23;20439;-77
2022/09/19 04:19:52;;;;;;;2.53;1.80;;;;;;;5.64;100.00;95921.81;6127580;23;20407;-77
2022/09/19 04:22:38;;;;;;;1.97;1.87;;;;;;;5.70;100.00;95915.31;6131839;23;20423;-78
2022/09/19 04:25:16;;;;;;;1.70;1.60;;;;;;;5.82;100.00;95936.50;6127829;23;20402;-77
2022/09/19 04:28:05;;;;;;;2.30;2.20;;;;;;;5.85;100.00;95956.88;6106605;23;20424;-78
2022/09/19 04:30:36;;;;;;;2.10;2.00;;;;;;;5.79;100.00;95955.47;6127615;23;20893;-77
2022/09/19 04:33:05;;;;;;;1.97;1.87;;;;;;;5.66;100.00;95938.00;6127503;23;20408;-77
2022/09/19 04:35:35;;;;;;;2.23;2.03;;;;;;;5.84;100.00;95968.44;6103324;23;20435;-78
2022/09/19 04:38:11;;;;;;;2.27;2.07;;;;;;;5.85;100.00;95966.59;6127246;23;20506;-77
2022/09/19 04:40:39;;;;;;;3.33;1.90;;;;;;;5.92;100.00;95972.97;6127444;23;20881;-77
2022/09/19 04:43:08;;;;;;;1.97;1.67;;;;;;;5.79;100.00;95952.84;6127494;23;20462;-78
2022/09/19 04:45:37;;;;;;;1.57;1.47;;;;;;;5.80;100.00;95975.38;6103647;23;20410;-77
2022/09/19 04:48:17;;;;;;;3.67;3.33;;;;;;;5.86;100.00;95976.78;6127787;23;20731;-76
2022/09/19 04:50:47;;;;;;;5.37;3.57;;;;;;;5.93;100.00;95976.38;6127210;23;20407;-76
2022/09/19 04:53:16;;;;;;;6.50;2.40;;;;;;;5.91;100.00;95981.94;6127298;23;20400;-76
2022/09/19 04:55:49;;;;;;;2.40;2.20;;;;;;;5.68;100.00;95948.97;6103464;23;20384;-77
2022/09/19 04:58:16;;;;;;;2.20;2.00;;;;;;;6.01;100.00;95985.34;6103153;23;20466;-77
2022/09/19 05:00:50;;;;;;;1.90;1.77;;;;;;;5.92;100.00;95980.84;6127282;23;20922;-76
2022/09/19 05:03:17;;;;;;;2.40;1.93;;;;;;;5.98;100.00;95991.19;6103183;23;20494;-76
2022/09/19 05:05:50;;;;;;;2.00;1.80;;;;;;;5.63;100.00;95942.00;6127282;23;20431;-76
2022/09/19 05:08:30;;;;;;;4.07;2.13;;;;;;;5.75;100.00;95965.03;6105405;23;20470;-76
2022/09/19 05:11:05;;;;;;;1.40;1.30;;;;;;;5.96;100.00;95982.88;6127299;23;20404;-76
2022/09/19 05:13:37;;;;;;;1.97;1.87;;;;;;;6.06;100.00;96000.97;6129230;23;20470;-75
2022/09/19 05:16:07;;;;;;;1.73;1.63;;;;;;;5.93;100.00;95984.25;6127981;23;20435;-77
2022/09/19 05:18:39;;;;;;;1.73;1.63;;;;;;;6.05;100.00;96007.28;6103630;23;20774;-77
2022/09/19 05:21:15;;;;;;;1.70;1.60;;;;;;;5.88;100.00;96000.09;6103697;23;20400;-76
2022/09/19 05:23:42;;;;;;;1.97;1.50;;;;;;;5.93;100.00;96019.13;6127168;23;20496;-77
2022/09/19 05:26:17;;;;;;;1.13;1.03;;;;;;;5.82;100.00;96012.56;6126944;23;20422;-76
2022/09/19 05:28:49;;;;;;;2.03;1.67;;;;;;;5.89;100.00;95991.94;6127054;23;20411;-76
2022/09/19 05:31:19;;;;;;;1.33;1.23;;;;;;;5.99;100.00;96016.34;6127113;23;20502;-77
2022/09/19 05:34:00;;;;;;;1.20;1.10;;;;;;;6.08;100.00;96020.56;6127235;23;20414;-76
2022/09/19 05:36:27;;;;;;;5.03;1.53;;;;;;;6.03;100.00;96020.72;6102593;23;20424;-76
2022/09/19 05:39:32;;;;;;;2.10;1.87;;;;;;;6.00;100.00;96005.56;6108361;23;20415;-76
2022/09/19 05:42:19;;;;;;;1.97;1.30;;;;;;;6.20;100.00;96043.59;6129963;23;20775;-76
2022/09/19 05:44:45;;;;;;;2.43;1.90;;;;;;;5.96;100.00;96007.25;6127534;23;20400;-76
2022/09/19 05:47:12;;;;;;;1.90;1.53;;;;;;;5.95;100.00;96003.09;6127083;23;20428;-77
2022/09/19 05:49:39;;;;;;;1.50;1.40;;;;;;;6.15;100.00;96018.28;6127257;23;20411;-76
2022/09/19 05:54:52;;;;;;;1.60;1.50;;;;;;;6.22;100.00;96038.81;6127087;23;20432;-77
2022/09/19 05:57:36;;;;;;;1.37;1.27;;;;;;;6.32;100.00;96054.28;6153377;23;20731;-77
2022/09/19 06:00:05;;;;;;;1.47;1.37;;;;;;;6.18;100.00;96027.38;6126966;23;20412;-77
2022/09/19 06:02:38;;;;;;;1.40;1.20;;;;;;;6.33;100.00;96042.72;6153229;23;20419;-78
2022/09/19 06:05:06;;;;;;;1.60;1.50;;;;;;;6.26;100.00;96046.84;6102913;23;20454;-77
2022/09/19 06:07:35;;;;;;;1.67;1.57;;;;;;;6.28;100.00;96052.56;6103087;23;20458;-77
2022/09/19 06:10:01;;;;;;;1.47;1.37;;;;;;;6.39;100.00;96072.22;6153087;23;20419;-77
2022/09/19 06:12:28;;;;;;;1.57;1.47;;;;;;;6.57;100.00;96086.94;6126925;23;20870;-77
2022/09/19 06:14:54;;;;;;;1.30;1.20;;;;;;;6.37;100.00;96050.75;6126838;23;20430;-77
2022/09/19 06:17:22;;;;;;;1.20;1.10;;;;;;;6.09;100.00;96008.22;6127103;23;20435;-77
2022/09/19 06:20:08;;;;;;;1.67;1.57;;;;;;;6.49;100.00;96074.56;6131333;23;20897;-78
2022/09/19 06:23:02;;;;;;;1.27;1.17;;;;;;;6.67;100.00;96099.78;6130539;23;20925;-77
2022/09/19 06:25:30;;;;;;;1.87;1.33;;;;;;;6.46;100.00;96075.19;6126939;23;20494;-77
2022/09/19 06:28:05;;;;;;;2.17;1.33;;;;;;;6.59;100.00;96105.03;6153055;23;20458;-77
2022/09/19 06:30:34;;;;;;;1.87;1.20;;;;;;;6.50;100.00;96074.25;6103507;23;20392;-77
2022/09/19 06:33:12;;;;;;;1.37;1.27;;;;;;;6.65;100.00;96106.41;6127245;23;20740;-77
2022/09/19 06:35:49;;;;;;;4.20;1.73;;;;;;;6.53;100.00;96092.03;6105024;23;20396;-77
2022/09/19 06:38:18;;;;;;;1.40;1.30;;;;;;;6.63;100.00;96104.09;6127161;23;20464;-77
2022/09/19 06:40:44;;;;;;;1.67;1.10;;;;;;;6.78;100.00;96118.66;6104110;23;20408;-78
2022/09/19 06:43:31;;;;;;;1.30;1.13;;;;;;;6.62;100.00;96110.44;6128932;23;20474;-78
2022/09/19 06:46:02;;;;;;;1.53;1.07;;;;;;;6.75;100.00;96133.19;6155186;23;20420;-78
2022/09/19 06:48:48;;;;;;;3.00;1.53;;;;;;;6.85;100.00;96139.25;6154945;23;20818;-77
2022/09/19 06:51:29;;;;;;;2.20;1.60;;;;;;;6.81;100.00;96133.81;6107059;23;20897;-78
2022/09/19 06:53:55;;;;;;;2.80;1.97;;;;;;;6.56;100.00;96101.16;6104600;23;20411;-77
2022/09/19 06:56:23;;;;;;;3.07;1.73;;;;;;;6.46;100.00;96093.56;6128572;23;20459;-77
2022/09/19 06:58:50;;;;;;;1.60;1.50;;;;;;;6.44;100.00;96096.50;6128710;23;20406;-77
2022/09/19 07:01:17;;;;;;;2.13;1.73;;;;;;;6.63;100.00;96140.88;6128619;23;20503;-76
2022/09/19 07:03:44;;;;;;;1.60;1.50;;;;;;;6.47;100.00;96127.41;6128636;23;20427;-76
2022/09/19 07:06:17;;;;;;;4.17;1.67;;;;;;;6.60;100.00;96125.72;6128545;23;20811;-76
2022/09/19 07:08:58;;;;;;;1.70;1.60;;;;;;;6.61;100.00;96129.91;6128429;23;20432;-77
2022/09/19 07:11:25;;;;;;;2.00;1.80;;;;;;;6.80;100.00;96140.13;6128804;23;20384;-76
2022/09/19 07:13:56;;;;;;;1.73;1.40;;;;;;;7.05;100.00;96163.06;6104991;23;20388;-76
2022/09/19 07:16:23;;;;;;;1.60;1.50;;;;;;;6.73;100.00;96124.06;6153677;23;20408;-77
2022/09/19 07:18:51;;;;;;;3.30;1.60;;;;;;;6.94;100.00;96168.91;6104634;23;20408;-77
2022/09/19 07:21:44;;;;;;;3.50;1.67;;;;;;;6.68;100.00;96148.63;6151334;23;20486;-77
2022/09/19 07:24:20;;;;;;;2.30;1.67;;;;;;;6.84;100.00;96164.75;6128345;23;20407;-77
2022/09/19 07:27:19;;;;;;;1.73;1.43;;;;;;;6.87;100.00;96148.34;6131647;23;20424;-77
2022/09/19 07:29:46;;;;;;;1.83;1.73;;;;;;;7.11;100.00;96174.22;6128321;23;20412;-77
2022/09/19 07:32:18;;;;;;;2.10;1.90;;;;;;;7.08;100.00;96159.84;6134413;23;20483;-77
2022/09/19 07:34:45;;;;;;;6.90;2.30;;;;;;;7.23;100.00;96187.56;6136951;23;20472;-77
2022/09/19 07:37:12;;;;;;;3.40;3.10;;;;;;;7.00;100.00;96157.97;6113465;23;20463;-77
2022/09/19 07:39:42;;;;;;;2.50;2.30;;;;;;;7.30;100.00;96193.09;6136941;23;20408;-77
2022/09/19 07:42:39;;;;;;;3.47;2.30;;;;;;;7.19;100.00;96178.72;6136546;23;20439;-77
2022/09/19 07:45:25;;;;;;;5.07;3.20;;;;;;;7.03;100.00;96174.97;6154730;23;20392;-77
2022/09/19 07:48:24;;;;;;;3.43;2.63;;;;;;;7.21;100.00;96202.88;6114874;23;20400;-77
2022/09/19 07:51:21;;;;;;;2.23;2.03;;;;;;;6.84;100.00;96163.97;6134789;23;20399;-77
2022/09/19 07:53:51;;;;;;;5.17;2.13;;;;;;;7.08;100.00;96188.00;6128046;23;20410;-77
2022/09/19 07:56:18;;;;;;;3.47;2.40;;;;;;;6.98;100.00;96183.78;6128078;23;20435;-77
2022/09/19 07:58:45;;;;;;;2.70;2.37;;;;;;;6.85;100.00;96168.91;6128024;23;20400;-77
2022/09/19 08:01:12;;;;;;;2.13;2.00;;;;;;;7.08;100.00;96196.66;6128112;23;20735;-77
2022/09/19 08:03:57;;;;;;;5.20;2.30;;;;;;;7.04;100.00;96179.16;6154113;23;20535;-78
2022/09/19 08:06:39;;;;;;;2.90;2.33;;;;;;;7.24;100.00;96212.00;6127846;23;20746;-77
2022/09/19 08:09:09;;;;;;;2.30;2.10;;;;;;;6.72;100.00;96146.16;6128248;23;20461;-78
2022/09/19 08:11:54;;;;;;;1.90;1.70;;;;;;;7.23;100.00;96207.81;6132083;23;20447;-79
2022/09/19 08:14:23;;;;;;;2.20;2.07;;;;;;;7.09;100.00;96184.28;6104308;23;20408;-78
2022/09/19 08:16:51;;;;;;;3.17;2.10;;;;;;;7.44;100.00;96239.53;6103720;23;20439;-78
2022/09/19 08:19:17;;;;;;;3.70;2.60;;;;;;;7.23;100.00;96210.44;6127999;23;20479;-78
2022/09/19 08:21:44;;;;;;;1.90;1.70;;;;;;;7.52;100.00;96265.88;6127957;23;20412;-78
2022/09/19 08:24:11;;;;;;;2.07;1.90;;;;;;;7.60;100.00;96272.97;6128085;23;20559;-78
2022/09/19 08:26:38;;;;;;;4.13;2.97;;;;;;;7.44;100.00;96239.53;6153871;23;20430;-78
2022/09/19 08:29:06;;;;;;;4.17;3.77;;;;;;;7.36;100.00;96235.81;6127792;23;20431;-78
2022/09/19 08:31:44;;;;;;;2.40;2.20;;;;;;;7.42;100.00;96258.25;6127951;23;20425;-78
2022/09/19 08:34:10;;;;;;;2.20;2.10;;;;;;;7.48;100.00;96274.66;6127735;23;20400;-78
2022/09/19 08:36:40;;;;;;;2.97;2.67;;;;;;;7.41;100.00;96235.66;6103624;23;20423;-78
2022/09/19 08:39:06;;;;;;;3.93;3.70;;;;;;;7.64;100.00;96284.44;6127621;23;20408;-79
2022/09/19 08:41:47;;;;;;;3.47;2.37;;;;;;;7.76;100.00;96290.97;6103458;23;20435;-79
2022/09/19 08:44:21;;;;;;;3.00;2.10;;;;;;;7.84;100.00;96308.63;6103624;23;20502;-77
2022/09/19 08:47:09;;;;;;;3.90;2.60;;;;;;;7.83;100.00;96307.84;6103380;23;20455;-78
2022/09/19 08:49:42;;;;;;;6.23;2.53;;;;;;;7.83;100.00;96301.81;6154010;23;20375;-78
2022/09/19 08:52:22;;;;;;;3.40;2.40;;;;;;;7.69;100.00;96307.22;6127527;23;20709;-78
2022/09/19 08:54:52;;;;;;;4.03;2.10;;;;;;;7.53;100.00;96277.16;6127797;23;20427;-78
2022/09/19 08:57:48;;;;;;;2.33;1.93;;;;;;;7.76;100.00;96309.41;6127485;23;20734;-78
2022/09/19 09:00:19;;;;;;;2.87;2.67;;;;;;;7.94;100.00;96309.09;6127483;23;20447;-78
2022/09/19 09:02:51;;;;;;;2.27;2.07;;;;;;;8.19;100.00;96322.56;6126993;23;20435;-78
2022/09/19 09:06:21;;;;;;;5.07;2.50;;;;;;;8.34;100.00;96331.88;6127492;23;20427;-78
2022/09/19 09:09:17;;;;;;;4.10;2.20;;;;;;;8.45;100.00;96331.25;6127263;23;20450;-78
2022/09/19 09:11:57;;;;;;;3.03;2.57;;;;;;;8.71;100.00;96339.13;6103583;23;20728;-78
2022/09/19 09:14:25;;;;;;;2.93;2.20;;;;;;;9.04;100.00;96338.56;6103193;23;20414;-78
2022/09/19 09:17:14;;;;;;;2.13;1.93;;;;;;;8.58;100.00;96282.13;6103149;23;20827;-78
2022/09/19 09:19:54;;;;;;;2.10;1.90;;;;;;;8.91;100.00;96350.84;6127230;23;20396;-79
2022/09/19 09:22:32;;;;;;;2.93;1.60;;;;;;;8.69;100.00;96317.59;6103557;23;20995;-79
2022/09/19 09:25:29;;;;;;;2.80;2.27;;;;;;;8.85;100.00;96347.63;6131222;23;20916;-78
2022/09/19 09:28:07;;;;;;;2.50;2.30;;;;;;;8.88;100.00;96356.78;6104164;23;20424;-78
2022/09/19 09:31:15;;;;;;;8.53;2.20;;;;;;;8.91;100.00;96358.00;6120872;23;20827;-79
2022/09/19 09:33:52;;;;;;;2.90;1.80;;;;;;;8.48;100.00;96337.78;6129374;23;20407;-78
2022/09/19 09:36:23;;;;;;;4.67;1.70;;;;;;;8.70;100.00;96340.22;6137705;23;20423;-77
2022/09/19 09:39:02;;;;;;;3.70;1.60;;;;;;;8.72;100.00;96348.59;6112637;23;20736;-77
2022/09/19 09:41:51;;;;;;;2.30;1.90;;;;;;;8.84;100.00;96361.91;6138302;23;20492;-78
2022/09/19 09:44:39;;;;;;;3.43;1.67;;;;;;;8.59;100.00;96371.41;6114334;23;20992;-77
2022/09/19 09:47:43;;;;;;;2.20;1.70;;;;;;;8.69;100.00;96361.63;6137410;23;20423;-78
2022/09/19 09:50:31;;;;;;;2.00;1.80;;;;;;;8.73;100.00;96367.81;6127407;23;20446;-78
2022/09/19 09:53:14;;;;;;;6.43;2.00;;;;;;;8.73;100.00;96376.50;6127586;23;20500;-78
2022/09/19 09:56:17;;;;;;;2.23;1.90;;;;;;;8.58;100.00;96342.72;6153586;23;20683;-78
2022/09/19 09:59:10;;;;;;;1.47;1.37;;;;;;;8.94;100.00;96376.59;6104213;23;20454;-79
2022/09/19 10:04:53;;;;;;;3.30;1.80;;;;;;;9.03;100.00;96369.44;6126974;23;20407;-79
2022/09/19 10:07:25;;;;;;;5.80;2.10;;;;;;;8.96;100.00;96365.75;6153336;23;20965;-77
2022/09/19 10:09:59;;;;;;;3.40;2.50;;;;;;;8.93;100.00;96376.91;6103117;23;20395;-78
2022/09/19 10:12:40;;;;;;;3.67;1.70;;;;;;;8.99;100.00;96394.13;6103317;23;20399;-78
2022/09/19 10:15:22;;;;;;;3.13;2.00;;;;;;;8.97;100.00;96391.03;6128920;23;20426;-78
2022/09/19 10:18:04;;;;;;;3.20;1.80;;;;;;;8.73;100.00;96336.94;6105199;23;21153;-79
2022/09/19 10:20:49;;;;;;;1.93;1.77;;;;;;;8.83;100.00;96368.25;6105543;23;20400;-78
2022/09/19 10:23:24;;;;;;;3.97;2.03;;;;;;;8.94;100.00;96341.53;6128937;23;20522;-78
2022/09/19 10:26:03;;;;;;;5.67;2.00;;;;;;;9.28;100.00;96352.00;6105464;23;20403;-79
2022/09/19 10:28:44;;;;;;;2.50;1.60;;;;;;;9.52;100.00;96354.06;6105213;23;20403;-78
2022/09/19 10:31:41;;;;;;;3.13;2.00;;;;;;;9.88;100.00;96393.16;6128992;23;20411;-78
2022/09/19 10:34:32;;;;;;;1.87;1.77;;;;;;;9.89;100.00;96399.22;6129023;23;20478;-78
2022/09/19 10:37:26;;;;;;;1.83;1.70;;;;;;;9.86;100.00;96368.16;6128871;23;20438;-79
2022/09/19 10:39:59;;;;;;;1.67;1.57;;;;;;;10.12;100.00;96395.19;6129320;23;20399;-79
2022/09/19 10:42:37;;;;;;;1.47;1.37;;;;;;;9.95;100.00;96367.00;6128883;23;20414;-77
2022/09/19 10:45:34;;;;;;;5.80;1.93;;;;;;;10.11;100.00;96400.78;6129060;23;20470;-78
2022/09/19 10:48:09;;;;;;;1.77;1.17;;;;;;;9.58;100.00;96416.13;6123423;23;21304;-78
2022/09/19 10:50:43;;;;;;;3.07;1.60;;;;;;;9.10;100.00;96376.88;6104744;23;20469;-78
2022/09/19 10:53:18;;;;;;;1.70;1.60;;;;;;;9.02;100.00;96396.91;6104878;23;20399;-77
2022/09/19 10:55:47;;;;;;;4.13;1.83;;;;;;;9.01;100.00;96399.88;6105338;23;20875;-79
2022/09/19 10:58:26;;;;;;;2.70;1.53;;;;;;;8.86;100.00;96369.50;6129240;23;20751;-79
2022/09/19 11:01:24;;;;;;;2.03;1.60;;;;;;;9.14;100.00;96402.31;6155845;23;20368;-78
2022/09/19 11:04:10;;;;;;;1.30;1.10;;;;;;;9.08;100.00;96408.84;6105181;23;20431;-78
2022/09/19 11:06:56;;;;;;;1.90;1.23;;;;;;;9.39;100.00;96411.25;6129394;23;20430;-78
2022/09/19 11:09:26;;;;;;;1.50;1.40;;;;;;;9.09;100.00;96367.44;6128726;23;20408;-78
2022/09/19 11:12:05;;;;;;;2.40;1.10;;;;;;;9.01;100.00;96418.31;6129129;23;20483;-79
2022/09/19 11:14:38;;;;;;;1.73;1.30;;;;;;;8.79;100.00;96406.88;6129707;23;20420;-79
2022/09/19 11:17:15;;;;;;;2.97;1.37;;;;;;;9.13;100.00;96427.13;6128753;23;20431;-78
2022/09/19 11:20:04;;;;;;;4.67;1.30;;;;;;;9.23;100.00;96433.94;6105206;23;20479;-78
2022/09/19 11:23:15;;;;;;;1.80;1.70;;;;;;;9.35;100.00;96423.53;6105007;23;20753;-78
2022/09/19 11:26:18;;;;;;;2.50;2.30;;;;;;;9.41;100.00;96422.25;6104916;23;20396;-79
2022/09/19 11:29:02;;;;;;;5.40;2.20;;;;;;;9.68;100.00;96441.41;6129515;23;20403;-79
2022/09/19 11:31:44;;;;;;;2.97;2.13;;;;;;;9.52;100.00;96417.41;6105175;23;20412;-79
2022/09/19 11:34:58;;;;;;;2.27;2.03;;;;;;;9.73;100.00;96433.28;6110573;23;20407;-79
2022/09/19 11:37:44;;;;;;;4.53;2.07;;;;;;;9.51;100.00;96426.41;6136718;23;20431;-78
2022/09/19 11:40:26;;;;;;;4.40;2.10;;;;;;;9.46;100.00;96437.91;6141985;23;20419;-77
2022/09/19 11:43:18;;;;;;;2.97;2.27;;;;;;;9.51;100.00;96426.41;6118905;23;20395;-78
2022/09/19 11:46:30;;;;;;;1.47;1.37;;;;;;;9.27;100.00;96426.94;6142971;23;20396;-79
2022/09/19 11:49:15;;;;;;;6.73;5.73;;;;;;;9.33;100.00;96417.00;6118673;23;20399;-78
2022/09/19 11:51:56;;;;;;;2.03;1.83;;;;;;;9.36;100.00;96433.00;6138121;23;20411;-77
2022/09/19 11:54:53;;;;;;;2.10;1.63;;;;;;;9.68;100.00;96428.97;6105167;23;20424;-78
2022/09/19 11:57:43;;;;;;;2.63;2.40;;;;;;;9.54;100.00;96425.78;6128633;23;20431;-78
2022/09/19 12:00:16;;;;;;;5.90;2.40;;;;;;;9.85;100.00;96425.47;6129258;23;20414;-78
2022/09/19 12:02:58;;;;;;;3.97;2.43;;;;;;;10.56;100.00;96424.75;6129414;23;20474;-79
2022/09/19 12:05:56;;;;;;;3.13;2.80;;;;;;;11.48;100.00;96424.47;6129700;23;20392;-79
2022/09/19 12:08:39;;;;;;;2.60;2.40;;;;;;;12.06;100.00;96419.91;6130300;23;20490;-80
2022/09/19 12:11:15;;;;;;;3.00;2.37;;;;;;;12.49;100.00;96415.84;6105618;23;20431;-80
2022/09/19 12:13:54;;;;;;;2.70;2.10;;;;;;;12.14;100.00;96389.84;6129964;23;20886;-80
2022/09/19 12:16:30;;;;;;;4.90;2.30;;;;;;;11.73;100.00;96385.56;6130391;23;20428;-79
2022/09/19 12:19:38;;;;;;;2.03;1.67;;;;;;;11.70;100.00;96408.19;6107464;23;20431;-80
2022/09/19 12:22:33;;;;;;;2.20;2.00;;;;;;;11.33;100.00;96406.59;6103994;23;20754;-80
2022/09/19 12:25:17;;;;;;;4.10;2.43;;;;;;;11.16;100.00;96399.63;6131674;23;20428;-79
2022/09/19 12:28:10;;;;;;;2.70;2.50;;;;;;;11.28;100.00;96373.19;6104279;23;20809;-78
2022/09/19 12:30:46;;;;;;;5.73;1.80;;;;;;;11.19;100.00;96397.09;6128693;23;20491;-78